Airfield :
LOGIN :

Register | Disclaimer

   EN    FR    IT 

 










Legend :    VFR   Marginal VFR   IFR   Intensive IFR   Very Intensive IFR
Visi :
Ceiling :
>= 8 km
>= 3000ft
5 to 8 km
1000 to 3000 ft
1500m to 5 km
500 to 1000 ft
800 to 1500m
200 to 500 ft
< 800m
< 200 ft
Symbols :   Thunderstorms  Fog  Heavy snow  Heavy precipitations  Wind > 20 kt
SIGMETs :     Misc.  Thunderstorms  Icing  Turbulence  Mountain Waves  Volcanic Ashes







- Airport Elevation : 286 ft
- IATA code : FFD


EGVA - RAF Fairford

CURRENT METAR :
  • 162256Z AUTO 28007KT 9999 CLR 15/11 A2996 RMK AO2 SLP147 T01460114

EXPIRED METARs :
  • 162156Z AUTO 27010KT 9999 CLR 15/11 A2995 RMK AO2 SLP143 T01540110
  • 162056Z AUTO 27011KT 9999 SCT100 17/10 A2994 RMK AO2 SLP140 T01670103 52013

Expired Forecast.
No reported NOTAMs for that airfield.
2 SIGMETs reported for the London FIR (EGTT) :
 
Embedded thunderstorms
EGTT SIGMET 07 VALID 162300/170200 EGRR
EGTT LONDON FIR EMBD TS FCST WI N5500 W00038 - N5413 E00006 - N5348 E00017 - N5351 W00022 - N5500 W00210 - N5500 W00038 TOP FL300 MOV NE 10KT NC=
Embedded thunderstorms
EGTT SIGMET 06 VALID 162022/162300 EGRR
EGTT LONDON FIR EMBD TS FCST WI N5316 W00013 - N5323 W00051 - N5341 W00053 - N5356 W00043 - N5334 W00014 - N5316 W00013 TOP FL300 MOV NE 10KT NC=



MET'MAP, your aeronautical weather chart ! - Copyright ORBIFLY December 2007 - Disclaimer

ORBIFLY MET'MAP TEAM :

Programming & Development : Alexandra Zaïnal
Concept & Development : Baudouin d'Aumeries
Co-Development & Prog : Marc-Olivier Méhu
Technical & hardware support : Manuel Goepfert

Contact : metmap@orbifly.com




SOURCES & CREDITS :

   NOAA